sensor_id;sensor_type;location;lat;lon;timestamp;P1;durP1;ratioP1;P2;durP2;ratioP2
73879;SDS011;62211;42.986;23.256;2022-08-25T00:03:47;14.18;;;8.98;;
73879;SDS011;62211;42.986;23.256;2022-08-25T00:06:12;18.60;;;9.05;;
73879;SDS011;62211;42.986;23.256;2022-08-25T00:08:38;16.60;;;8.60;;
73879;SDS011;62211;42.986;23.256;2022-08-25T00:11:05;17.52;;;8.40;;
73879;SDS011;62211;42.986;23.256;2022-08-25T00:13:41;18.52;;;7.97;;
73879;SDS011;62211;42.986;23.256;2022-08-25T00:16:09;15.18;;;7.68;;
73879;SDS011;62211;42.986;23.256;2022-08-25T00:18:36;10.55;;;7.68;;
73879;SDS011;62211;42.986;23.256;2022-08-25T00:21:03;15.82;;;8.68;;
73879;SDS011;62211;42.986;23.256;2022-08-25T00:23:29;12.65;;;8.00;;
73879;SDS011;62211;42.986;23.256;2022-08-25T00:25:55;16.98;;;8.85;;
73879;SDS011;62211;42.986;23.256;2022-08-25T00:28:20;14.38;;;7.53;;
73879;SDS011;62211;42.986;23.256;2022-08-25T00:30:46;14.65;;;7.68;;
73879;SDS011;62211;42.986;23.256;2022-08-25T00:33:12;14.85;;;7.50;;
73879;SDS011;62211;42.986;23.256;2022-08-25T00:35:39;17.77;;;7.90;;
73879;SDS011;62211;42.986;23.256;2022-08-25T00:38:07;15.05;;;7.90;;
73879;SDS011;62211;42.986;23.256;2022-08-25T00:40:33;16.52;;;8.60;;
73879;SDS011;62211;42.986;23.256;2022-08-25T00:42:58;13.32;;;7.50;;
73879;SDS011;62211;42.986;23.256;2022-08-25T00:45:24;13.90;;;7.85;;
73879;SDS011;62211;42.986;23.256;2022-08-25T00:47:50;16.08;;;7.97;;
73879;SDS011;62211;42.986;23.256;2022-08-25T00:50:15;11.15;;;7.45;;
73879;SDS011;62211;42.986;23.256;2022-08-25T00:52:45;15.02;;;7.78;;
73879;SDS011;62211;42.986;23.256;2022-08-25T00:55:21;13.23;;;7.50;;
73879;SDS011;62211;42.986;23.256;2022-08-25T00:58:23;18.95;;;8.88;;
73879;SDS011;62211;42.986;23.256;2022-08-25T01:00:46;19.15;;;8.57;;
73879;SDS011;62211;42.986;23.256;2022-08-25T01:03:13;19.70;;;9.00;;
73879;SDS011;62211;42.986;23.256;2022-08-25T01:05:40;19.42;;;8.50;;
73879;SDS011;62211;42.986;23.256;2022-08-25T01:08:06;15.32;;;8.23;;
73879;SDS011;62211;42.986;23.256;2022-08-25T01:10:37;13.43;;;8.00;;
73879;SDS011;62211;42.986;23.256;2022-08-25T01:13:09;13.80;;;7.95;;
73879;SDS011;62211;42.986;23.256;2022-08-25T01:18:04;16.42;;;8.85;;
73879;SDS011;62211;42.986;23.256;2022-08-25T01:20:30;14.85;;;7.82;;
73879;SDS011;62211;42.986;23.256;2022-08-25T01:22:57;17.10;;;8.80;;
73879;SDS011;62211;42.986;23.256;2022-08-25T01:25:29;13.50;;;8.57;;
73879;SDS011;62211;42.986;23.256;2022-08-25T01:27:56;14.95;;;8.57;;
73879;SDS011;62211;42.986;23.256;2022-08-25T01:30:22;15.48;;;8.98;;
73879;SDS011;62211;42.986;23.256;2022-08-25T01:32:48;15.15;;;7.90;;
73879;SDS011;62211;42.986;23.256;2022-08-25T01:35:14;14.60;;;8.27;;
73879;SDS011;62211;42.986;23.256;2022-08-25T01:37:40;16.85;;;8.57;;
73879;SDS011;62211;42.986;23.256;2022-08-25T01:40:05;12.15;;;8.32;;
73879;SDS011;62211;42.986;23.256;2022-08-25T01:42:42;15.30;;;8.30;;
73879;SDS011;62211;42.986;23.256;2022-08-25T01:45:11;12.30;;;7.75;;
73879;SDS011;62211;42.986;23.256;2022-08-25T01:47:36;14.57;;;8.02;;
73879;SDS011;62211;42.986;23.256;2022-08-25T01:50:03;14.73;;;8.02;;
73879;SDS011;62211;42.986;23.256;2022-08-25T01:52:36;22.33;;;9.20;;
73879;SDS011;62211;42.986;23.256;2022-08-25T01:55:09;18.98;;;9.23;;
73879;SDS011;62211;42.986;23.256;2022-08-25T01:57:34;17.75;;;8.15;;
73879;SDS011;62211;42.986;23.256;2022-08-25T02:00:00;20.38;;;9.70;;
73879;SDS011;62211;42.986;23.256;2022-08-25T02:02:25;13.63;;;7.90;;
73879;SDS011;62211;42.986;23.256;2022-08-25T02:04:52;13.60;;;8.02;;
73879;SDS011;62211;42.986;23.256;2022-08-25T02:07:17;14.98;;;9.23;;
73879;SDS011;62211;42.986;23.256;2022-08-25T02:09:43;15.77;;;8.45;;
73879;SDS011;62211;42.986;23.256;2022-08-25T02:12:09;17.35;;;9.07;;
73879;SDS011;62211;42.986;23.256;2022-08-25T02:14:35;21.13;;;9.38;;
73879;SDS011;62211;42.986;23.256;2022-08-25T02:17:01;20.05;;;9.60;;
73879;SDS011;62211;42.986;23.256;2022-08-25T02:19:27;18.35;;;8.75;;
73879;SDS011;62211;42.986;23.256;2022-08-25T02:21:55;18.60;;;7.85;;
73879;SDS011;62211;42.986;23.256;2022-08-25T02:24:20;13.57;;;8.45;;
73879;SDS011;62211;42.986;23.256;2022-08-25T02:26:46;15.48;;;8.88;;
73879;SDS011;62211;42.986;23.256;2022-08-25T02:29:12;16.15;;;8.73;;
73879;SDS011;62211;42.986;23.256;2022-08-25T02:31:38;14.68;;;9.02;;
73879;SDS011;62211;42.986;23.256;2022-08-25T02:34:04;15.13;;;8.77;;
73879;SDS011;62211;42.986;23.256;2022-08-25T02:36:30;19.48;;;8.95;;
73879;SDS011;62211;42.986;23.256;2022-08-25T02:38:56;12.48;;;7.43;;
73879;SDS011;62211;42.986;23.256;2022-08-25T02:41:22;14.52;;;7.45;;
73879;SDS011;62211;42.986;23.256;2022-08-25T02:43:49;16.48;;;8.52;;
73879;SDS011;62211;42.986;23.256;2022-08-25T02:46:16;16.85;;;9.35;;
73879;SDS011;62211;42.986;23.256;2022-08-25T02:48:44;16.02;;;7.82;;
73879;SDS011;62211;42.986;23.256;2022-08-25T02:51:10;16.13;;;9.10;;
73879;SDS011;62211;42.986;23.256;2022-08-25T02:53:36;14.15;;;8.68;;
73879;SDS011;62211;42.986;23.256;2022-08-25T02:56:04;14.40;;;9.55;;
73879;SDS011;62211;42.986;23.256;2022-08-25T02:58:31;19.33;;;9.00;;
73879;SDS011;62211;42.986;23.256;2022-08-25T03:00:56;20.77;;;8.93;;
73879;SDS011;62211;42.986;23.256;2022-08-25T03:03:22;15.27;;;8.88;;
73879;SDS011;62211;42.986;23.256;2022-08-25T03:05:47;13.35;;;8.88;;
73879;SDS011;62211;42.986;23.256;2022-08-25T03:08:13;15.55;;;8.60;;
73879;SDS011;62211;42.986;23.256;2022-08-25T03:10:39;18.10;;;8.77;;
73879;SDS011;62211;42.986;23.256;2022-08-25T03:13:05;14.50;;;8.35;;
73879;SDS011;62211;42.986;23.256;2022-08-25T03:15:30;16.58;;;9.38;;
73879;SDS011;62211;42.986;23.256;2022-08-25T03:17:56;15.75;;;10.02;;
73879;SDS011;62211;42.986;23.256;2022-08-25T03:20:22;12.95;;;8.52;;
73879;SDS011;62211;42.986;23.256;2022-08-25T03:22:48;14.55;;;9.18;;
73879;SDS011;62211;42.986;23.256;2022-08-25T03:25:15;14.10;;;9.05;;
73879;SDS011;62211;42.986;23.256;2022-08-25T03:27:59;16.58;;;9.38;;
73879;SDS011;62211;42.986;23.256;2022-08-25T03:30:27;16.75;;;9.30;;
73879;SDS011;62211;42.986;23.256;2022-08-25T03:32:53;23.65;;;11.13;;
73879;SDS011;62211;42.986;23.256;2022-08-25T03:35:19;16.27;;;9.05;;
73879;SDS011;62211;42.986;23.256;2022-08-25T03:37:44;19.80;;;11.18;;
73879;SDS011;62211;42.986;23.256;2022-08-25T03:40:12;14.82;;;8.68;;
73879;SDS011;62211;42.986;23.256;2022-08-25T03:42:39;14.07;;;8.27;;
73879;SDS011;62211;42.986;23.256;2022-08-25T03:45:06;12.32;;;9.10;;
73879;SDS011;62211;42.986;23.256;2022-08-25T03:47:32;15.38;;;9.45;;
73879;SDS011;62211;42.986;23.256;2022-08-25T03:49:58;18.85;;;9.88;;
73879;SDS011;62211;42.986;23.256;2022-08-25T03:52:24;14.60;;;9.52;;
73879;SDS011;62211;42.986;23.256;2022-08-25T03:54:49;19.27;;;11.15;;
73879;SDS011;62211;42.986;23.256;2022-08-25T03:57:15;15.20;;;10.18;;
73879;SDS011;62211;42.986;23.256;2022-08-25T03:59:40;18.52;;;10.48;;
73879;SDS011;62211;42.986;23.256;2022-08-25T04:02:05;19.50;;;10.80;;
73879;SDS011;62211;42.986;23.256;2022-08-25T04:04:31;16.02;;;9.90;;
73879;SDS011;62211;42.986;23.256;2022-08-25T04:06:57;18.90;;;11.25;;
73879;SDS011;62211;42.986;23.256;2022-08-25T04:09:22;17.40;;;9.82;;
73879;SDS011;62211;42.986;23.256;2022-08-25T04:11:48;14.75;;;9.82;;
73879;SDS011;62211;42.986;23.256;2022-08-25T04:14:14;20.75;;;11.48;;
73879;SDS011;62211;42.986;23.256;2022-08-25T04:16:39;16.73;;;10.05;;
73879;SDS011;62211;42.986;23.256;2022-08-25T04:19:05;14.02;;;9.30;;
73879;SDS011;62211;42.986;23.256;2022-08-25T04:21:33;17.95;;;9.65;;
73879;SDS011;62211;42.986;23.256;2022-08-25T04:23:59;17.77;;;9.48;;
73879;SDS011;62211;42.986;23.256;2022-08-25T04:26:26;21.50;;;11.77;;
73879;SDS011;62211;42.986;23.256;2022-08-25T04:28:55;18.08;;;10.63;;
73879;SDS011;62211;42.986;23.256;2022-08-25T04:31:21;15.85;;;9.63;;
73879;SDS011;62211;42.986;23.256;2022-08-25T04:33:47;18.30;;;9.43;;
73879;SDS011;62211;42.986;23.256;2022-08-25T04:36:12;11.65;;;8.82;;
73879;SDS011;62211;42.986;23.256;2022-08-25T04:38:40;20.40;;;9.68;;
73879;SDS011;62211;42.986;23.256;2022-08-25T04:41:06;16.08;;;10.55;;
73879;SDS011;62211;42.986;23.256;2022-08-25T04:43:33;23.38;;;11.85;;
73879;SDS011;62211;42.986;23.256;2022-08-25T04:46:03;22.70;;;11.40;;
73879;SDS011;62211;42.986;23.256;2022-08-25T04:48:30;18.35;;;10.38;;
73879;SDS011;62211;42.986;23.256;2022-08-25T04:50:56;18.33;;;9.98;;
73879;SDS011;62211;42.986;23.256;2022-08-25T04:53:22;19.75;;;11.10;;
73879;SDS011;62211;42.986;23.256;2022-08-25T04:55:47;20.17;;;12.68;;
73879;SDS011;62211;42.986;23.256;2022-08-25T04:58:14;23.70;;;14.15;;
73879;SDS011;62211;42.986;23.256;2022-08-25T05:00:40;20.83;;;13.35;;
73879;SDS011;62211;42.986;23.256;2022-08-25T05:03:06;23.25;;;15.18;;
73879;SDS011;62211;42.986;23.256;2022-08-25T05:05:34;27.65;;;15.23;;
73879;SDS011;62211;42.986;23.256;2022-08-25T05:08:01;24.80;;;15.35;;
73879;SDS011;62211;42.986;23.256;2022-08-25T05:10:26;29.98;;;14.90;;
73879;SDS011;62211;42.986;23.256;2022-08-25T05:12:52;22.73;;;14.50;;
73879;SDS011;62211;42.986;23.256;2022-08-25T05:15:17;33.30;;;16.48;;
73879;SDS011;62211;42.986;23.256;2022-08-25T05:18:01;25.15;;;15.18;;
73879;SDS011;62211;42.986;23.256;2022-08-25T05:20:26;22.27;;;13.05;;
73879;SDS011;62211;42.986;23.256;2022-08-25T05:22:55;23.08;;;15.02;;
73879;SDS011;62211;42.986;23.256;2022-08-25T05:25:20;32.05;;;17.08;;
73879;SDS011;62211;42.986;23.256;2022-08-25T05:27:46;30.58;;;14.65;;
73879;SDS011;62211;42.986;23.256;2022-08-25T05:30:11;21.83;;;13.85;;
73879;SDS011;62211;42.986;23.256;2022-08-25T05:32:37;20.85;;;13.23;;
73879;SDS011;62211;42.986;23.256;2022-08-25T05:35:03;24.23;;;14.63;;
73879;SDS011;62211;42.986;23.256;2022-08-25T05:37:30;26.00;;;13.88;;
73879;SDS011;62211;42.986;23.256;2022-08-25T05:39:56;21.38;;;12.55;;
73879;SDS011;62211;42.986;23.256;2022-08-25T05:42:22;21.77;;;12.55;;
73879;SDS011;62211;42.986;23.256;2022-08-25T05:44:48;20.33;;;12.38;;
73879;SDS011;62211;42.986;23.256;2022-08-25T05:47:15;21.63;;;13.90;;
73879;SDS011;62211;42.986;23.256;2022-08-25T05:49:41;20.67;;;12.15;;
73879;SDS011;62211;42.986;23.256;2022-08-25T05:52:06;24.10;;;13.18;;
73879;SDS011;62211;42.986;23.256;2022-08-25T05:54:32;18.20;;;13.80;;
73879;SDS011;62211;42.986;23.256;2022-08-25T05:56:57;25.85;;;13.48;;
73879;SDS011;62211;42.986;23.256;2022-08-25T05:59:23;17.85;;;12.25;;
73879;SDS011;62211;42.986;23.256;2022-08-25T06:01:48;21.35;;;12.40;;
73879;SDS011;62211;42.986;23.256;2022-08-25T06:04:32;17.30;;;12.10;;
73879;SDS011;62211;42.986;23.256;2022-08-25T06:06:58;16.48;;;11.65;;
73879;SDS011;62211;42.986;23.256;2022-08-25T06:09:24;16.95;;;12.25;;
73879;SDS011;62211;42.986;23.256;2022-08-25T06:11:50;19.10;;;13.05;;
73879;SDS011;62211;42.986;23.256;2022-08-25T06:14:16;18.10;;;11.68;;
73879;SDS011;62211;42.986;23.256;2022-08-25T06:16:42;20.30;;;13.07;;
73879;SDS011;62211;42.986;23.256;2022-08-25T06:19:08;19.88;;;12.52;;
73879;SDS011;62211;42.986;23.256;2022-08-25T06:21:34;17.80;;;11.98;;
73879;SDS011;62211;42.986;23.256;2022-08-25T06:24:01;16.48;;;11.68;;
73879;SDS011;62211;42.986;23.256;2022-08-25T06:26:26;19.27;;;12.13;;
73879;SDS011;62211;42.986;23.256;2022-08-25T06:28:52;16.45;;;11.48;;
73879;SDS011;62211;42.986;23.256;2022-08-25T06:31:18;19.77;;;12.27;;
73879;SDS011;62211;42.986;23.256;2022-08-25T06:33:44;18.33;;;11.15;;
73879;SDS011;62211;42.986;23.256;2022-08-25T06:36:10;18.88;;;10.95;;
73879;SDS011;62211;42.986;23.256;2022-08-25T06:38:35;15.75;;;11.60;;
73879;SDS011;62211;42.986;23.256;2022-08-25T06:41:02;18.58;;;12.13;;
73879;SDS011;62211;42.986;23.256;2022-08-25T06:43:31;20.98;;;11.10;;
73879;SDS011;62211;42.986;23.256;2022-08-25T06:45:58;20.35;;;11.40;;
73879;SDS011;62211;42.986;23.256;2022-08-25T06:48:35;18.08;;;11.13;;
73879;SDS011;62211;42.986;23.256;2022-08-25T06:51:08;15.38;;;10.98;;
73879;SDS011;62211;42.986;23.256;2022-08-25T06:53:36;21.15;;;11.02;;
73879;SDS011;62211;42.986;23.256;2022-08-25T06:56:02;19.85;;;11.90;;
73879;SDS011;62211;42.986;23.256;2022-08-25T06:58:28;18.67;;;11.80;;
73879;SDS011;62211;42.986;23.256;2022-08-25T07:00:54;24.25;;;11.25;;
73879;SDS011;62211;42.986;23.256;2022-08-25T07:03:19;21.30;;;11.30;;
73879;SDS011;62211;42.986;23.256;2022-08-25T07:05:51;14.18;;;11.18;;
73879;SDS011;62211;42.986;23.256;2022-08-25T07:08:18;18.10;;;10.90;;
73879;SDS011;62211;42.986;23.256;2022-08-25T07:10:44;18.52;;;11.75;;
73879;SDS011;62211;42.986;23.256;2022-08-25T07:13:10;19.13;;;11.30;;
73879;SDS011;62211;42.986;23.256;2022-08-25T07:15:39;15.98;;;10.50;;
73879;SDS011;62211;42.986;23.256;2022-08-25T07:18:05;19.90;;;11.25;;
73879;SDS011;62211;42.986;23.256;2022-08-25T07:20:32;16.25;;;12.07;;
73879;SDS011;62211;42.986;23.256;2022-08-25T07:22:58;22.70;;;11.10;;
73879;SDS011;62211;42.986;23.256;2022-08-25T07:25:24;16.67;;;10.45;;
73879;SDS011;62211;42.986;23.256;2022-08-25T07:27:49;15.82;;;9.73;;
73879;SDS011;62211;42.986;23.256;2022-08-25T07:30:15;23.52;;;10.57;;
73879;SDS011;62211;42.986;23.256;2022-08-25T07:32:41;16.48;;;9.77;;
73879;SDS011;62211;42.986;23.256;2022-08-25T07:35:06;19.17;;;9.60;;
73879;SDS011;62211;42.986;23.256;2022-08-25T07:37:42;19.48;;;10.52;;
73879;SDS011;62211;42.986;23.256;2022-08-25T07:40:14;18.85;;;12.43;;
73879;SDS011;62211;42.986;23.256;2022-08-25T07:42:48;33.13;;;14.23;;
73879;SDS011;62211;42.986;23.256;2022-08-25T07:45:14;17.17;;;9.18;;
73879;SDS011;62211;42.986;23.256;2022-08-25T07:47:40;16.08;;;9.23;;
73879;SDS011;62211;42.986;23.256;2022-08-25T07:50:06;21.30;;;10.10;;
73879;SDS011;62211;42.986;23.256;2022-08-25T07:52:33;16.23;;;8.35;;
73879;SDS011;62211;42.986;23.256;2022-08-25T07:54:59;18.77;;;8.48;;
73879;SDS011;62211;42.986;23.256;2022-08-25T07:57:24;20.98;;;9.15;;
73879;SDS011;62211;42.986;23.256;2022-08-25T07:59:51;22.65;;;8.65;;
73879;SDS011;62211;42.986;23.256;2022-08-25T08:02:17;17.27;;;6.65;;
73879;SDS011;62211;42.986;23.256;2022-08-25T08:04:43;14.55;;;5.97;;
73879;SDS011;62211;42.986;23.256;2022-08-25T08:07:10;17.23;;;7.22;;
73879;SDS011;62211;42.986;23.256;2022-08-25T08:09:36;14.50;;;5.68;;
73879;SDS011;62211;42.986;23.256;2022-08-25T08:12:02;17.58;;;5.10;;
73879;SDS011;62211;42.986;23.256;2022-08-25T08:14:29;16.55;;;4.63;;
73879;SDS011;62211;42.986;23.256;2022-08-25T08:16:55;12.90;;;5.63;;
73879;SDS011;62211;42.986;23.256;2022-08-25T08:19:20;16.45;;;5.25;;
73879;SDS011;62211;42.986;23.256;2022-08-25T08:21:47;13.55;;;4.28;;
73879;SDS011;62211;42.986;23.256;2022-08-25T08:24:13;15.77;;;6.05;;
73879;SDS011;62211;42.986;23.256;2022-08-25T08:26:39;12.82;;;5.18;;
73879;SDS011;62211;42.986;23.256;2022-08-25T08:29:04;13.52;;;4.40;;
73879;SDS011;62211;42.986;23.256;2022-08-25T08:31:30;10.23;;;4.60;;
73879;SDS011;62211;42.986;23.256;2022-08-25T08:33:56;11.65;;;5.03;;
73879;SDS011;62211;42.986;23.256;2022-08-25T08:36:22;12.07;;;4.50;;
73879;SDS011;62211;42.986;23.256;2022-08-25T08:38:48;13.43;;;4.72;;
73879;SDS011;62211;42.986;23.256;2022-08-25T08:53:15;16.65;;;4.43;;
73879;SDS011;62211;42.986;23.256;2022-08-25T08:55:54;11.38;;;4.25;;
73879;SDS011;62211;42.986;23.256;2022-08-25T09:01:30;17.38;;;4.65;;
73879;SDS011;62211;42.986;23.256;2022-08-25T09:04:07;11.60;;;3.78;;
73879;SDS011;62211;42.986;23.256;2022-08-25T09:06:45;4.95;;;3.75;;
73879;SDS011;62211;42.986;23.256;2022-08-25T09:09:13;11.82;;;3.85;;
73879;SDS011;62211;42.986;23.256;2022-08-25T09:25:38;11.43;;;3.58;;
73879;SDS011;62211;42.986;23.256;2022-08-25T09:33:30;13.48;;;3.58;;
73879;SDS011;62211;42.986;23.256;2022-08-25T09:35:56;9.73;;;4.25;;
73879;SDS011;62211;42.986;23.256;2022-08-25T09:38:22;10.52;;;3.40;;
73879;SDS011;62211;42.986;23.256;2022-08-25T09:40:49;11.45;;;3.85;;
73879;SDS011;62211;42.986;23.256;2022-08-25T09:43:20;14.75;;;3.45;;
73879;SDS011;62211;42.986;23.256;2022-08-25T09:45:48;12.00;;;4.20;;
73879;SDS011;62211;42.986;23.256;2022-08-25T09:48:20;17.08;;;4.35;;
73879;SDS011;62211;42.986;23.256;2022-08-25T09:50:48;18.35;;;4.50;;
73879;SDS011;62211;42.986;23.256;2022-08-25T09:53:15;11.50;;;3.88;;
73879;SDS011;62211;42.986;23.256;2022-08-25T09:55:42;16.40;;;4.32;;
73879;SDS011;62211;42.986;23.256;2022-08-25T09:58:16;13.30;;;4.00;;
73879;SDS011;62211;42.986;23.256;2022-08-25T10:00:44;20.27;;;4.53;;
73879;SDS011;62211;42.986;23.256;2022-08-25T10:03:25;14.80;;;4.28;;
73879;SDS011;62211;42.986;23.256;2022-08-25T10:08:30;11.13;;;4.80;;
73879;SDS011;62211;42.986;23.256;2022-08-25T10:11:05;9.15;;;4.28;;
73879;SDS011;62211;42.986;23.256;2022-08-25T10:13:34;10.38;;;4.88;;
73879;SDS011;62211;42.986;23.256;2022-08-25T10:16:10;9.43;;;4.05;;
73879;SDS011;62211;42.986;23.256;2022-08-25T10:18:35;16.67;;;4.07;;
73879;SDS011;62211;42.986;23.256;2022-08-25T10:21:35;12.20;;;4.80;;
73879;SDS011;62211;42.986;23.256;2022-08-25T10:23:53;9.85;;;4.97;;
73879;SDS011;62211;42.986;23.256;2022-08-25T10:26:27;7.97;;;3.60;;
73879;SDS011;62211;42.986;23.256;2022-08-25T10:29:15;9.57;;;3.67;;
73879;SDS011;62211;42.986;23.256;2022-08-25T10:37:02;9.27;;;4.45;;
73879;SDS011;62211;42.986;23.256;2022-08-25T10:39:37;10.80;;;3.72;;
73879;SDS011;62211;42.986;23.256;2022-08-25T10:42:09;10.73;;;4.00;;
73879;SDS011;62211;42.986;23.256;2022-08-25T10:44:48;10.48;;;4.22;;
73879;SDS011;62211;42.986;23.256;2022-08-25T11:00:58;13.45;;;4.40;;
73879;SDS011;62211;42.986;23.256;2022-08-25T11:03:36;12.65;;;3.63;;
73879;SDS011;62211;42.986;23.256;2022-08-25T11:06:23;7.90;;;3.75;;
73879;SDS011;62211;42.986;23.256;2022-08-25T11:08:56;7.78;;;3.72;;
73879;SDS011;62211;42.986;23.256;2022-08-25T11:14:02;16.08;;;3.33;;
73879;SDS011;62211;42.986;23.256;2022-08-25T11:16:39;8.65;;;3.50;;
73879;SDS011;62211;42.986;23.256;2022-08-25T11:21:51;10.85;;;3.65;;
73879;SDS011;62211;42.986;23.256;2022-08-25T11:26:56;11.13;;;3.58;;
73879;SDS011;62211;42.986;23.256;2022-08-25T11:29:24;8.70;;;3.50;;
73879;SDS011;62211;42.986;23.256;2022-08-25T11:31:54;11.48;;;3.85;;
73879;SDS011;62211;42.986;23.256;2022-08-25T11:34:23;9.65;;;4.20;;
73879;SDS011;62211;42.986;23.256;2022-08-25T11:36:51;12.43;;;3.42;;
73879;SDS011;62211;42.986;23.256;2022-08-25T11:41:58;11.20;;;3.63;;
73879;SDS011;62211;42.986;23.256;2022-08-25T11:49:51;16.92;;;5.40;;
73879;SDS011;62211;42.986;23.256;2022-08-25T11:55:09;21.00;;;5.53;;
73879;SDS011;62211;42.986;23.256;2022-08-25T11:58:13;16.23;;;6.97;;
73879;SDS011;62211;42.986;23.256;2022-08-25T12:00:47;12.00;;;3.83;;
73879;SDS011;62211;42.986;23.256;2022-08-25T12:08:46;10.82;;;3.38;;
73879;SDS011;62211;42.986;23.256;2022-08-25T12:11:57;12.82;;;4.47;;
73879;SDS011;62211;42.986;23.256;2022-08-25T12:17:35;20.83;;;10.93;;
73879;SDS011;62211;42.986;23.256;2022-08-25T12:20:02;11.23;;;4.30;;
73879;SDS011;62211;42.986;23.256;2022-08-25T12:25:02;6.72;;;4.05;;
73879;SDS011;62211;42.986;23.256;2022-08-25T12:28:36;15.30;;;3.88;;
73879;SDS011;62211;42.986;23.256;2022-08-25T12:30:41;8.57;;;3.50;;
73879;SDS011;62211;42.986;23.256;2022-08-25T12:36:03;19.10;;;4.45;;
73879;SDS011;62211;42.986;23.256;2022-08-25T12:41:30;14.18;;;3.80;;
73879;SDS011;62211;42.986;23.256;2022-08-25T12:44:08;13.35;;;4.47;;
73879;SDS011;62211;42.986;23.256;2022-08-25T12:49:44;9.52;;;4.18;;
73879;SDS011;62211;42.986;23.256;2022-08-25T12:52:43;10.88;;;3.50;;
73879;SDS011;62211;42.986;23.256;2022-08-25T12:55:03;22.50;;;5.57;;
73879;SDS011;62211;42.986;23.256;2022-08-25T12:57:49;11.43;;;4.32;;
73879;SDS011;62211;42.986;23.256;2022-08-25T13:00:22;7.82;;;3.50;;
73879;SDS011;62211;42.986;23.256;2022-08-25T13:11:17;16.70;;;3.88;;
73879;SDS011;62211;42.986;23.256;2022-08-25T13:13:50;15.25;;;4.35;;
73879;SDS011;62211;42.986;23.256;2022-08-25T13:16:21;15.75;;;4.80;;
73879;SDS011;62211;42.986;23.256;2022-08-25T13:18:50;11.73;;;4.28;;
73879;SDS011;62211;42.986;23.256;2022-08-25T13:21:17;11.68;;;3.80;;
73879;SDS011;62211;42.986;23.256;2022-08-25T13:23:53;9.43;;;3.88;;
73879;SDS011;62211;42.986;23.256;2022-08-25T13:26:21;14.00;;;5.00;;
73879;SDS011;62211;42.986;23.256;2022-08-25T13:28:59;13.77;;;3.72;;
73879;SDS011;62211;42.986;23.256;2022-08-25T13:31:27;6.55;;;3.75;;
73879;SDS011;62211;42.986;23.256;2022-08-25T13:33:58;13.85;;;5.05;;
73879;SDS011;62211;42.986;23.256;2022-08-25T13:36:29;11.80;;;3.88;;
73879;SDS011;62211;42.986;23.256;2022-08-25T13:39:16;13.85;;;4.20;;
73879;SDS011;62211;42.986;23.256;2022-08-25T13:41:53;10.02;;;3.47;;
73879;SDS011;62211;42.986;23.256;2022-08-25T13:44:22;13.35;;;4.97;;
73879;SDS011;62211;42.986;23.256;2022-08-25T13:49:31;15.27;;;4.57;;
73879;SDS011;62211;42.986;23.256;2022-08-25T13:51:57;16.73;;;4.28;;
73879;SDS011;62211;42.986;23.256;2022-08-25T13:54:28;14.07;;;3.78;;
73879;SDS011;62211;42.986;23.256;2022-08-25T13:59:55;11.52;;;3.60;;
73879;SDS011;62211;42.986;23.256;2022-08-25T14:05:16;10.55;;;4.35;;
73879;SDS011;62211;42.986;23.256;2022-08-25T14:07:55;10.80;;;3.40;;
73879;SDS011;62211;42.986;23.256;2022-08-25T14:13:08;13.75;;;5.00;;
73879;SDS011;62211;42.986;23.256;2022-08-25T14:15:36;9.60;;;3.35;;
73879;SDS011;62211;42.986;23.256;2022-08-25T14:20:33;17.85;;;4.63;;
73879;SDS011;62211;42.986;23.256;2022-08-25T14:23:05;9.77;;;3.47;;
73879;SDS011;62211;42.986;23.256;2022-08-25T14:25:32;8.40;;;3.65;;
73879;SDS011;62211;42.986;23.256;2022-08-25T14:28:03;12.45;;;3.85;;
73879;SDS011;62211;42.986;23.256;2022-08-25T14:30:30;9.75;;;4.05;;
73879;SDS011;62211;42.986;23.256;2022-08-25T14:32:58;11.35;;;3.88;;
73879;SDS011;62211;42.986;23.256;2022-08-25T14:35:24;10.95;;;3.58;;
73879;SDS011;62211;42.986;23.256;2022-08-25T14:37:50;11.75;;;4.57;;
73879;SDS011;62211;42.986;23.256;2022-08-25T14:40:15;8.82;;;4.43;;
73879;SDS011;62211;42.986;23.256;2022-08-25T14:42:44;17.38;;;4.93;;
73879;SDS011;62211;42.986;23.256;2022-08-25T14:45:11;9.98;;;3.33;;
73879;SDS011;62211;42.986;23.256;2022-08-25T14:47:38;12.88;;;4.30;;
73879;SDS011;62211;42.986;23.256;2022-08-25T14:50:04;11.68;;;3.72;;
73879;SDS011;62211;42.986;23.256;2022-08-25T14:52:29;8.65;;;4.18;;
73879;SDS011;62211;42.986;23.256;2022-08-25T14:54:55;13.02;;;3.67;;
73879;SDS011;62211;42.986;23.256;2022-08-25T14:57:21;10.90;;;4.07;;
73879;SDS011;62211;42.986;23.256;2022-08-25T14:59:47;13.30;;;4.25;;
73879;SDS011;62211;42.986;23.256;2022-08-25T15:02:14;20.92;;;4.75;;
73879;SDS011;62211;42.986;23.256;2022-08-25T15:04:44;8.50;;;3.50;;
73879;SDS011;62211;42.986;23.256;2022-08-25T15:07:14;18.80;;;3.60;;
73879;SDS011;62211;42.986;23.256;2022-08-25T15:09:58;8.85;;;4.07;;
73879;SDS011;62211;42.986;23.256;2022-08-25T15:12:23;10.73;;;4.25;;
73879;SDS011;62211;42.986;23.256;2022-08-25T15:14:49;18.08;;;4.45;;
73879;SDS011;62211;42.986;23.256;2022-08-25T15:17:14;15.93;;;3.97;;
73879;SDS011;62211;42.986;23.256;2022-08-25T15:19:40;12.30;;;4.05;;
73879;SDS011;62211;42.986;23.256;2022-08-25T15:22:06;13.60;;;4.00;;
73879;SDS011;62211;42.986;23.256;2022-08-25T15:24:32;14.88;;;3.33;;
73879;SDS011;62211;42.986;23.256;2022-08-25T15:26:58;13.43;;;4.20;;
73879;SDS011;62211;42.986;23.256;2022-08-25T15:29:25;6.07;;;3.95;;
73879;SDS011;62211;42.986;23.256;2022-08-25T15:31:53;10.98;;;4.93;;
73879;SDS011;62211;42.986;23.256;2022-08-25T15:34:19;14.88;;;6.70;;
73879;SDS011;62211;42.986;23.256;2022-08-25T15:36:45;11.50;;;4.13;;
73879;SDS011;62211;42.986;23.256;2022-08-25T15:39:10;11.98;;;6.07;;
73879;SDS011;62211;42.986;23.256;2022-08-25T15:41:36;27.33;;;13.65;;
73879;SDS011;62211;42.986;23.256;2022-08-25T15:44:05;8.20;;;5.68;;
73879;SDS011;62211;42.986;23.256;2022-08-25T15:46:31;14.60;;;4.93;;
73879;SDS011;62211;42.986;23.256;2022-08-25T15:48:58;13.80;;;5.57;;
73879;SDS011;62211;42.986;23.256;2022-08-25T15:51:24;12.20;;;4.30;;
73879;SDS011;62211;42.986;23.256;2022-08-25T15:53:50;13.85;;;6.63;;
73879;SDS011;62211;42.986;23.256;2022-08-25T15:56:16;11.98;;;5.68;;
73879;SDS011;62211;42.986;23.256;2022-08-25T15:58:43;35.72;;;19.88;;
73879;SDS011;62211;42.986;23.256;2022-08-25T16:01:20;13.05;;;5.38;;
73879;SDS011;62211;42.986;23.256;2022-08-25T16:03:47;12.10;;;5.03;;
73879;SDS011;62211;42.986;23.256;2022-08-25T16:06:13;9.75;;;4.15;;
73879;SDS011;62211;42.986;23.256;2022-08-25T16:08:39;8.80;;;4.10;;
73879;SDS011;62211;42.986;23.256;2022-08-25T16:11:05;11.98;;;4.53;;
73879;SDS011;62211;42.986;23.256;2022-08-25T16:13:31;10.85;;;3.85;;
73879;SDS011;62211;42.986;23.256;2022-08-25T16:15:57;13.65;;;4.07;;
73879;SDS011;62211;42.986;23.256;2022-08-25T16:18:23;13.32;;;4.07;;
73879;SDS011;62211;42.986;23.256;2022-08-25T16:20:49;6.65;;;3.45;;
73879;SDS011;62211;42.986;23.256;2022-08-25T16:23:16;12.63;;;4.93;;
73879;SDS011;62211;42.986;23.256;2022-08-25T16:25:42;16.30;;;4.20;;
73879;SDS011;62211;42.986;23.256;2022-08-25T16:28:10;12.82;;;3.92;;